sensor_id;sensor_type;location;lat;lon;timestamp;P1;durP1;ratioP1;P2;durP2;ratioP2
20828;SDS011;10575;50.124;8.582;2024-01-11T00:02:13;70.90;;;27.92;;
20828;SDS011;10575;50.124;8.582;2024-01-11T00:04:39;76.32;;;26.70;;
20828;SDS011;10575;50.124;8.582;2024-01-11T00:07:05;73.68;;;26.17;;
20828;SDS011;10575;50.124;8.582;2024-01-11T00:09:31;67.75;;;26.30;;
20828;SDS011;10575;50.124;8.582;2024-01-11T00:11:56;75.50;;;27.70;;
20828;SDS011;10575;50.124;8.582;2024-01-11T00:14:22;78.70;;;27.45;;
20828;SDS011;10575;50.124;8.582;2024-01-11T00:16:47;71.60;;;25.30;;
20828;SDS011;10575;50.124;8.582;2024-01-11T00:19:13;70.68;;;25.52;;
20828;SDS011;10575;50.124;8.582;2024-01-11T00:21:38;72.28;;;25.45;;
20828;SDS011;10575;50.124;8.582;2024-01-11T00:24:04;73.75;;;27.67;;
20828;SDS011;10575;50.124;8.582;2024-01-11T00:26:29;70.70;;;27.05;;
20828;SDS011;10575;50.124;8.582;2024-01-11T00:28:55;70.90;;;25.98;;
20828;SDS011;10575;50.124;8.582;2024-01-11T00:31:20;62.25;;;24.17;;
20828;SDS011;10575;50.124;8.582;2024-01-11T00:33:46;72.50;;;24.83;;
20828;SDS011;10575;50.124;8.582;2024-01-11T00:36:16;66.70;;;25.73;;
20828;SDS011;10575;50.124;8.582;2024-01-11T00:38:43;64.72;;;25.15;;
20828;SDS011;10575;50.124;8.582;2024-01-11T00:41:09;67.65;;;25.63;;
20828;SDS011;10575;50.124;8.582;2024-01-11T00:43:34;70.18;;;24.13;;
20828;SDS011;10575;50.124;8.582;2024-01-11T00:46:00;72.50;;;25.20;;
20828;SDS011;10575;50.124;8.582;2024-01-11T00:48:25;64.03;;;26.10;;
20828;SDS011;10575;50.124;8.582;2024-01-11T00:50:51;65.57;;;25.02;;
20828;SDS011;10575;50.124;8.582;2024-01-11T00:53:16;69.75;;;25.70;;
20828;SDS011;10575;50.124;8.582;2024-01-11T00:55:42;64.45;;;24.33;;
20828;SDS011;10575;50.124;8.582;2024-01-11T00:58:08;72.63;;;24.88;;
20828;SDS011;10575;50.124;8.582;2024-01-11T01:00:33;62.88;;;23.35;;
20828;SDS011;10575;50.124;8.582;2024-01-11T01:02:59;69.65;;;24.65;;
20828;SDS011;10575;50.124;8.582;2024-01-11T01:05:24;62.00;;;24.45;;
20828;SDS011;10575;50.124;8.582;2024-01-11T01:07:50;66.55;;;24.88;;
20828;SDS011;10575;50.124;8.582;2024-01-11T01:10:15;69.43;;;26.60;;
20828;SDS011;10575;50.124;8.582;2024-01-11T01:12:41;64.10;;;25.15;;
20828;SDS011;10575;50.124;8.582;2024-01-11T01:15:06;63.17;;;23.02;;
20828;SDS011;10575;50.124;8.582;2024-01-11T01:17:32;75.90;;;25.45;;
20828;SDS011;10575;50.124;8.582;2024-01-11T01:19:58;71.00;;;25.75;;
20828;SDS011;10575;50.124;8.582;2024-01-11T01:22:23;71.63;;;25.35;;
20828;SDS011;10575;50.124;8.582;2024-01-11T01:24:49;70.22;;;24.38;;
20828;SDS011;10575;50.124;8.582;2024-01-11T01:27:15;69.22;;;24.35;;
20828;SDS011;10575;50.124;8.582;2024-01-11T01:29:41;69.85;;;25.25;;
20828;SDS011;10575;50.124;8.582;2024-01-11T01:32:06;65.75;;;23.83;;
20828;SDS011;10575;50.124;8.582;2024-01-11T01:34:32;67.05;;;24.25;;
20828;SDS011;10575;50.124;8.582;2024-01-11T01:36:57;67.43;;;24.25;;
20828;SDS011;10575;50.124;8.582;2024-01-11T01:39:26;67.75;;;23.70;;
20828;SDS011;10575;50.124;8.582;2024-01-11T01:41:51;58.35;;;23.70;;
20828;SDS011;10575;50.124;8.582;2024-01-11T01:44:17;61.92;;;25.15;;
20828;SDS011;10575;50.124;8.582;2024-01-11T01:46:42;66.47;;;25.23;;
20828;SDS011;10575;50.124;8.582;2024-01-11T01:49:08;66.13;;;24.42;;
20828;SDS011;10575;50.124;8.582;2024-01-11T01:51:35;65.80;;;23.83;;
20828;SDS011;10575;50.124;8.582;2024-01-11T01:54:01;66.88;;;24.27;;
20828;SDS011;10575;50.124;8.582;2024-01-11T01:56:28;62.40;;;23.10;;
20828;SDS011;10575;50.124;8.582;2024-01-11T01:58:53;62.95;;;23.10;;
20828;SDS011;10575;50.124;8.582;2024-01-11T02:01:20;72.95;;;25.00;;
20828;SDS011;10575;50.124;8.582;2024-01-11T02:03:46;63.80;;;24.00;;
20828;SDS011;10575;50.124;8.582;2024-01-11T02:06:15;67.43;;;24.30;;
20828;SDS011;10575;50.124;8.582;2024-01-11T02:08:42;64.95;;;23.70;;
20828;SDS011;10575;50.124;8.582;2024-01-11T02:11:08;72.15;;;25.08;;
20828;SDS011;10575;50.124;8.582;2024-01-11T02:13:35;63.78;;;23.00;;
20828;SDS011;10575;50.124;8.582;2024-01-11T02:16:02;72.85;;;25.05;;
20828;SDS011;10575;50.124;8.582;2024-01-11T02:18:28;66.68;;;22.35;;
20828;SDS011;10575;50.124;8.582;2024-01-11T02:20:53;74.43;;;25.63;;
20828;SDS011;10575;50.124;8.582;2024-01-11T02:23:21;68.50;;;25.33;;
20828;SDS011;10575;50.124;8.582;2024-01-11T02:25:49;68.80;;;23.35;;
20828;SDS011;10575;50.124;8.582;2024-01-11T02:28:14;70.20;;;24.85;;
20828;SDS011;10575;50.124;8.582;2024-01-11T02:30:40;65.50;;;23.27;;
20828;SDS011;10575;50.124;8.582;2024-01-11T02:33:05;65.50;;;22.63;;
20828;SDS011;10575;50.124;8.582;2024-01-11T02:35:32;58.53;;;22.25;;
20828;SDS011;10575;50.124;8.582;2024-01-11T02:37:59;67.25;;;24.15;;
20828;SDS011;10575;50.124;8.582;2024-01-11T02:40:25;75.00;;;24.05;;
20828;SDS011;10575;50.124;8.582;2024-01-11T02:42:51;64.22;;;23.60;;
20828;SDS011;10575;50.124;8.582;2024-01-11T02:45:17;69.18;;;23.70;;
20828;SDS011;10575;50.124;8.582;2024-01-11T02:47:43;67.63;;;23.42;;
20828;SDS011;10575;50.124;8.582;2024-01-11T02:50:09;64.82;;;23.45;;
20828;SDS011;10575;50.124;8.582;2024-01-11T02:52:36;66.65;;;24.45;;
20828;SDS011;10575;50.124;8.582;2024-01-11T02:55:02;65.50;;;24.13;;
20828;SDS011;10575;50.124;8.582;2024-01-11T02:57:28;67.38;;;23.50;;
20828;SDS011;10575;50.124;8.582;2024-01-11T02:59:53;66.32;;;22.67;;
20828;SDS011;10575;50.124;8.582;2024-01-11T03:02:19;67.95;;;24.38;;
20828;SDS011;10575;50.124;8.582;2024-01-11T03:04:44;68.07;;;22.25;;
20828;SDS011;10575;50.124;8.582;2024-01-11T03:07:10;59.75;;;22.90;;
20828;SDS011;10575;50.124;8.582;2024-01-11T03:09:36;60.97;;;23.50;;
20828;SDS011;10575;50.124;8.582;2024-01-11T03:12:01;69.95;;;24.67;;
20828;SDS011;10575;50.124;8.582;2024-01-11T03:14:29;68.72;;;23.35;;
20828;SDS011;10575;50.124;8.582;2024-01-11T03:16:55;65.60;;;23.73;;
20828;SDS011;10575;50.124;8.582;2024-01-11T03:19:20;70.43;;;25.10;;
20828;SDS011;10575;50.124;8.582;2024-01-11T03:21:46;72.60;;;24.77;;
20828;SDS011;10575;50.124;8.582;2024-01-11T03:24:12;66.47;;;23.38;;
20828;SDS011;10575;50.124;8.582;2024-01-11T03:26:38;75.38;;;24.60;;
20828;SDS011;10575;50.124;8.582;2024-01-11T03:29:04;68.57;;;24.48;;
20828;SDS011;10575;50.124;8.582;2024-01-11T03:31:30;68.65;;;25.10;;
20828;SDS011;10575;50.124;8.582;2024-01-11T03:33:55;61.40;;;22.98;;
20828;SDS011;10575;50.124;8.582;2024-01-11T03:36:23;69.47;;;25.90;;
20828;SDS011;10575;50.124;8.582;2024-01-11T03:38:49;70.78;;;23.95;;
20828;SDS011;10575;50.124;8.582;2024-01-11T03:41:15;68.07;;;24.40;;
20828;SDS011;10575;50.124;8.582;2024-01-11T03:43:41;70.03;;;25.50;;
20828;SDS011;10575;50.124;8.582;2024-01-11T03:46:06;69.10;;;24.98;;
20828;SDS011;10575;50.124;8.582;2024-01-11T03:48:32;71.50;;;24.15;;
20828;SDS011;10575;50.124;8.582;2024-01-11T03:50:57;68.35;;;24.75;;
20828;SDS011;10575;50.124;8.582;2024-01-11T03:53:23;70.78;;;24.25;;
20828;SDS011;10575;50.124;8.582;2024-01-11T03:55:48;75.10;;;25.27;;
20828;SDS011;10575;50.124;8.582;2024-01-11T03:58:14;68.68;;;25.15;;
20828;SDS011;10575;50.124;8.582;2024-01-11T04:00:39;69.38;;;24.42;;
20828;SDS011;10575;50.124;8.582;2024-01-11T04:03:07;67.75;;;24.50;;
20828;SDS011;10575;50.124;8.582;2024-01-11T04:05:32;67.90;;;25.10;;
20828;SDS011;10575;50.124;8.582;2024-01-11T04:07:58;75.38;;;25.60;;
20828;SDS011;10575;50.124;8.582;2024-01-11T04:10:23;70.57;;;23.27;;
20828;SDS011;10575;50.124;8.582;2024-01-11T04:12:49;78.35;;;26.25;;
20828;SDS011;10575;50.124;8.582;2024-01-11T04:15:15;61.90;;;24.63;;
20828;SDS011;10575;50.124;8.582;2024-01-11T04:17:41;67.38;;;24.88;;
20828;SDS011;10575;50.124;8.582;2024-01-11T04:20:06;75.07;;;26.33;;
20828;SDS011;10575;50.124;8.582;2024-01-11T04:22:33;72.13;;;24.90;;
20828;SDS011;10575;50.124;8.582;2024-01-11T04:24:59;70.35;;;24.88;;
20828;SDS011;10575;50.124;8.582;2024-01-11T04:27:25;79.75;;;26.83;;
20828;SDS011;10575;50.124;8.582;2024-01-11T04:29:51;72.97;;;26.42;;
20828;SDS011;10575;50.124;8.582;2024-01-11T04:32:16;69.93;;;25.20;;
20828;SDS011;10575;50.124;8.582;2024-01-11T04:34:42;75.80;;;27.90;;
20828;SDS011;10575;50.124;8.582;2024-01-11T04:37:07;75.65;;;27.02;;
20828;SDS011;10575;50.124;8.582;2024-01-11T04:39:33;74.25;;;24.52;;
20828;SDS011;10575;50.124;8.582;2024-01-11T04:41:58;77.05;;;27.48;;
20828;SDS011;10575;50.124;8.582;2024-01-11T04:44:25;84.55;;;27.38;;
20828;SDS011;10575;50.124;8.582;2024-01-11T04:46:51;76.00;;;27.05;;
20828;SDS011;10575;50.124;8.582;2024-01-11T04:49:16;81.18;;;27.80;;
20828;SDS011;10575;50.124;8.582;2024-01-11T04:51:42;86.00;;;27.77;;
20828;SDS011;10575;50.124;8.582;2024-01-11T04:54:07;80.60;;;27.65;;
20828;SDS011;10575;50.124;8.582;2024-01-11T04:56:33;72.07;;;26.80;;
20828;SDS011;10575;50.124;8.582;2024-01-11T04:58:59;80.18;;;27.30;;
20828;SDS011;10575;50.124;8.582;2024-01-11T05:01:24;79.47;;;27.33;;
20828;SDS011;10575;50.124;8.582;2024-01-11T05:03:50;81.60;;;27.85;;
20828;SDS011;10575;50.124;8.582;2024-01-11T05:06:16;75.47;;;27.20;;
20828;SDS011;10575;50.124;8.582;2024-01-11T05:08:45;88.97;;;28.65;;
20828;SDS011;10575;50.124;8.582;2024-01-11T05:11:15;83.97;;;27.63;;
20828;SDS011;10575;50.124;8.582;2024-01-11T05:13:44;85.68;;;28.50;;
20828;SDS011;10575;50.124;8.582;2024-01-11T05:16:22;82.80;;;28.67;;
20828;SDS011;10575;50.124;8.582;2024-01-11T05:18:50;84.03;;;27.58;;
20828;SDS011;10575;50.124;8.582;2024-01-11T05:21:16;87.10;;;28.77;;
20828;SDS011;10575;50.124;8.582;2024-01-11T05:23:42;88.72;;;27.52;;
20828;SDS011;10575;50.124;8.582;2024-01-11T05:26:09;78.70;;;28.20;;
20828;SDS011;10575;50.124;8.582;2024-01-11T05:28:34;99.68;;;30.50;;
20828;SDS011;10575;50.124;8.582;2024-01-11T05:31:00;83.88;;;29.00;;
20828;SDS011;10575;50.124;8.582;2024-01-11T05:33:26;84.85;;;28.20;;
20828;SDS011;10575;50.124;8.582;2024-01-11T05:35:51;92.93;;;30.75;;
20828;SDS011;10575;50.124;8.582;2024-01-11T05:38:18;85.13;;;29.67;;
20828;SDS011;10575;50.124;8.582;2024-01-11T05:40:44;85.15;;;29.10;;
20828;SDS011;10575;50.124;8.582;2024-01-11T05:43:10;80.57;;;28.73;;
20828;SDS011;10575;50.124;8.582;2024-01-11T05:45:38;87.57;;;28.90;;
20828;SDS011;10575;50.124;8.582;2024-01-11T05:48:03;86.55;;;29.52;;
20828;SDS011;10575;50.124;8.582;2024-01-11T05:50:30;83.20;;;29.63;;
20828;SDS011;10575;50.124;8.582;2024-01-11T05:52:56;76.90;;;28.02;;
20828;SDS011;10575;50.124;8.582;2024-01-11T05:55:22;82.75;;;28.90;;
20828;SDS011;10575;50.124;8.582;2024-01-11T05:57:48;85.03;;;28.67;;
20828;SDS011;10575;50.124;8.582;2024-01-11T06:00:14;89.63;;;28.38;;
20828;SDS011;10575;50.124;8.582;2024-01-11T06:02:39;80.97;;;28.02;;
20828;SDS011;10575;50.124;8.582;2024-01-11T06:05:07;72.82;;;28.00;;
20828;SDS011;10575;50.124;8.582;2024-01-11T06:07:33;76.10;;;26.35;;
20828;SDS011;10575;50.124;8.582;2024-01-11T06:09:59;82.18;;;27.27;;
20828;SDS011;10575;50.124;8.582;2024-01-11T06:12:27;83.40;;;27.33;;
20828;SDS011;10575;50.124;8.582;2024-01-11T06:14:53;77.13;;;29.65;;
20828;SDS011;10575;50.124;8.582;2024-01-11T06:17:18;80.25;;;28.25;;
20828;SDS011;10575;50.124;8.582;2024-01-11T06:19:44;74.78;;;27.35;;
20828;SDS011;10575;50.124;8.582;2024-01-11T06:22:09;82.63;;;27.40;;
20828;SDS011;10575;50.124;8.582;2024-01-11T06:24:35;82.45;;;28.42;;
20828;SDS011;10575;50.124;8.582;2024-01-11T06:27:00;75.53;;;27.75;;
20828;SDS011;10575;50.124;8.582;2024-01-11T06:29:26;80.15;;;26.95;;
20828;SDS011;10575;50.124;8.582;2024-01-11T06:31:52;74.95;;;27.80;;
20828;SDS011;10575;50.124;8.582;2024-01-11T06:34:17;77.20;;;28.60;;
20828;SDS011;10575;50.124;8.582;2024-01-11T06:36:42;74.03;;;26.05;;
20828;SDS011;10575;50.124;8.582;2024-01-11T06:39:09;80.65;;;27.27;;
20828;SDS011;10575;50.124;8.582;2024-01-11T06:41:35;78.63;;;27.60;;
20828;SDS011;10575;50.124;8.582;2024-01-11T06:44:00;87.22;;;31.65;;
20828;SDS011;10575;50.124;8.582;2024-01-11T06:46:26;80.00;;;28.92;;
20828;SDS011;10575;50.124;8.582;2024-01-11T06:48:51;85.05;;;28.90;;
20828;SDS011;10575;50.124;8.582;2024-01-11T06:51:20;83.90;;;30.55;;
20828;SDS011;10575;50.124;8.582;2024-01-11T06:53:46;97.05;;;32.20;;
20828;SDS011;10575;50.124;8.582;2024-01-11T06:56:16;87.53;;;31.70;;
20828;SDS011;10575;50.124;8.582;2024-01-11T06:58:43;93.55;;;31.92;;
20828;SDS011;10575;50.124;8.582;2024-01-11T07:01:09;87.60;;;30.63;;
20828;SDS011;10575;50.124;8.582;2024-01-11T07:03:35;80.95;;;29.58;;
20828;SDS011;10575;50.124;8.582;2024-01-11T07:06:01;91.93;;;29.92;;
20828;SDS011;10575;50.124;8.582;2024-01-11T07:08:28;99.68;;;31.15;;
20828;SDS011;10575;50.124;8.582;2024-01-11T07:10:53;101.68;;;33.65;;
20828;SDS011;10575;50.124;8.582;2024-01-11T07:13:19;100.78;;;32.15;;
20828;SDS011;10575;50.124;8.582;2024-01-11T07:15:44;89.70;;;32.78;;
20828;SDS011;10575;50.124;8.582;2024-01-11T07:18:10;84.72;;;30.30;;
20828;SDS011;10575;50.124;8.582;2024-01-11T07:20:35;86.95;;;30.52;;
20828;SDS011;10575;50.124;8.582;2024-01-11T07:23:01;90.00;;;32.70;;
20828;SDS011;10575;50.124;8.582;2024-01-11T07:25:26;86.65;;;32.10;;
20828;SDS011;10575;50.124;8.582;2024-01-11T07:27:52;92.95;;;30.83;;
20828;SDS011;10575;50.124;8.582;2024-01-11T07:30:17;92.03;;;32.28;;
20828;SDS011;10575;50.124;8.582;2024-01-11T07:32:43;92.40;;;33.35;;
20828;SDS011;10575;50.124;8.582;2024-01-11T07:35:09;89.45;;;32.22;;
20828;SDS011;10575;50.124;8.582;2024-01-11T07:37:36;88.82;;;31.70;;
20828;SDS011;10575;50.124;8.582;2024-01-11T07:40:02;91.85;;;32.03;;
20828;SDS011;10575;50.124;8.582;2024-01-11T07:42:29;92.85;;;31.42;;
20828;SDS011;10575;50.124;8.582;2024-01-11T07:44:54;96.68;;;32.95;;
20828;SDS011;10575;50.124;8.582;2024-01-11T07:47:20;88.57;;;30.48;;
20828;SDS011;10575;50.124;8.582;2024-01-11T07:49:45;100.03;;;32.50;;
20828;SDS011;10575;50.124;8.582;2024-01-11T07:52:11;95.65;;;32.17;;
20828;SDS011;10575;50.124;8.582;2024-01-11T07:54:36;96.40;;;33.33;;
20828;SDS011;10575;50.124;8.582;2024-01-11T07:57:02;90.50;;;31.60;;
20828;SDS011;10575;50.124;8.582;2024-01-11T07:59:34;88.78;;;32.05;;
20828;SDS011;10575;50.124;8.582;2024-01-11T08:02:01;101.30;;;31.63;;
20828;SDS011;10575;50.124;8.582;2024-01-11T08:04:27;88.45;;;30.77;;
20828;SDS011;10575;50.124;8.582;2024-01-11T08:06:52;87.53;;;32.30;;
20828;SDS011;10575;50.124;8.582;2024-01-11T08:09:18;90.35;;;30.67;;
20828;SDS011;10575;50.124;8.582;2024-01-11T08:11:43;97.32;;;33.08;;
20828;SDS011;10575;50.124;8.582;2024-01-11T08:14:09;87.10;;;31.48;;
20828;SDS011;10575;50.124;8.582;2024-01-11T08:16:34;99.10;;;32.42;;
20828;SDS011;10575;50.124;8.582;2024-01-11T08:19:00;100.82;;;31.40;;
20828;SDS011;10575;50.124;8.582;2024-01-11T08:21:25;93.15;;;31.98;;
20828;SDS011;10575;50.124;8.582;2024-01-11T08:23:51;83.75;;;30.85;;
20828;SDS011;10575;50.124;8.582;2024-01-11T08:26:17;94.75;;;33.80;;
20828;SDS011;10575;50.124;8.582;2024-01-11T08:28:46;96.63;;;31.88;;
20828;SDS011;10575;50.124;8.582;2024-01-11T08:31:12;93.97;;;31.25;;
20828;SDS011;10575;50.124;8.582;2024-01-11T08:33:38;94.60;;;32.35;;
20828;SDS011;10575;50.124;8.582;2024-01-11T08:36:04;101.28;;;32.42;;
20828;SDS011;10575;50.124;8.582;2024-01-11T08:38:30;103.28;;;34.03;;
20828;SDS011;10575;50.124;8.582;2024-01-11T08:40:56;94.32;;;33.42;;
20828;SDS011;10575;50.124;8.582;2024-01-11T08:43:23;103.75;;;35.67;;
20828;SDS011;10575;50.124;8.582;2024-01-11T08:45:51;99.72;;;34.63;;
20828;SDS011;10575;50.124;8.582;2024-01-11T08:48:17;94.63;;;34.45;;
20828;SDS011;10575;50.124;8.582;2024-01-11T08:50:43;97.70;;;35.13;;
20828;SDS011;10575;50.124;8.582;2024-01-11T08:53:08;94.88;;;32.80;;
20828;SDS011;10575;50.124;8.582;2024-01-11T08:55:34;97.93;;;32.60;;
20828;SDS011;10575;50.124;8.582;2024-01-11T08:57:59;97.95;;;34.15;;
20828;SDS011;10575;50.124;8.582;2024-01-11T09:00:26;99.75;;;33.40;;
20828;SDS011;10575;50.124;8.582;2024-01-11T09:02:51;99.15;;;35.08;;
20828;SDS011;10575;50.124;8.582;2024-01-11T09:05:17;86.40;;;31.85;;
20828;SDS011;10575;50.124;8.582;2024-01-11T09:07:43;90.28;;;32.75;;
20828;SDS011;10575;50.124;8.582;2024-01-11T09:10:08;92.65;;;32.72;;
20828;SDS011;10575;50.124;8.582;2024-01-11T09:12:34;92.38;;;33.42;;
20828;SDS011;10575;50.124;8.582;2024-01-11T09:15:01;84.47;;;32.40;;
20828;SDS011;10575;50.124;8.582;2024-01-11T09:17:27;82.90;;;32.95;;
20828;SDS011;10575;50.124;8.582;2024-01-11T09:19:53;86.68;;;31.38;;
20828;SDS011;10575;50.124;8.582;2024-01-11T09:22:18;83.55;;;32.70;;
20828;SDS011;10575;50.124;8.582;2024-01-11T09:24:44;81.38;;;31.35;;
20828;SDS011;10575;50.124;8.582;2024-01-11T09:27:10;84.53;;;30.88;;
20828;SDS011;10575;50.124;8.582;2024-01-11T09:29:35;86.50;;;32.67;;
20828;SDS011;10575;50.124;8.582;2024-01-11T09:32:01;85.97;;;31.63;;
20828;SDS011;10575;50.124;8.582;2024-01-11T09:34:27;83.90;;;31.92;;
20828;SDS011;10575;50.124;8.582;2024-01-11T09:36:52;84.22;;;32.75;;
20828;SDS011;10575;50.124;8.582;2024-01-11T09:39:18;78.80;;;31.27;;
20828;SDS011;10575;50.124;8.582;2024-01-11T09:41:47;80.80;;;33.10;;
20828;SDS011;10575;50.124;8.582;2024-01-11T09:44:22;86.72;;;32.67;;
20828;SDS011;10575;50.124;8.582;2024-01-11T09:46:49;87.97;;;32.35;;
20828;SDS011;10575;50.124;8.582;2024-01-11T09:49:14;89.57;;;32.63;;
20828;SDS011;10575;50.124;8.582;2024-01-11T09:51:43;81.75;;;31.83;;
20828;SDS011;10575;50.124;8.582;2024-01-11T09:54:11;81.05;;;29.90;;
20828;SDS011;10575;50.124;8.582;2024-01-11T09:56:38;86.05;;;32.85;;
20828;SDS011;10575;50.124;8.582;2024-01-11T09:59:04;84.72;;;31.05;;
20828;SDS011;10575;50.124;8.582;2024-01-11T10:01:34;86.60;;;32.95;;
20828;SDS011;10575;50.124;8.582;2024-01-11T10:04:00;81.25;;;31.27;;
20828;SDS011;10575;50.124;8.582;2024-01-11T10:06:28;85.13;;;31.40;;
20828;SDS011;10575;50.124;8.582;2024-01-11T10:08:58;79.10;;;32.28;;
20828;SDS011;10575;50.124;8.582;2024-01-11T10:11:26;80.15;;;30.23;;
20828;SDS011;10575;50.124;8.582;2024-01-11T10:14:00;76.20;;;31.13;;
20828;SDS011;10575;50.124;8.582;2024-01-11T10:16:27;81.63;;;32.08;;
20828;SDS011;10575;50.124;8.582;2024-01-11T10:18:56;78.38;;;30.58;;
20828;SDS011;10575;50.124;8.582;2024-01-11T10:21:23;77.05;;;29.65;;
20828;SDS011;10575;50.124;8.582;2024-01-11T10:23:49;74.88;;;30.27;;
20828;SDS011;10575;50.124;8.582;2024-01-11T10:26:15;75.53;;;29.80;;
20828;SDS011;10575;50.124;8.582;2024-01-11T10:28:45;82.78;;;31.65;;
20828;SDS011;10575;50.124;8.582;2024-01-11T10:31:11;84.93;;;30.63;;
20828;SDS011;10575;50.124;8.582;2024-01-11T10:33:36;80.68;;;30.45;;
20828;SDS011;10575;50.124;8.582;2024-01-11T10:36:02;81.32;;;31.70;;
20828;SDS011;10575;50.124;8.582;2024-01-11T10:38:29;74.95;;;29.92;;
20828;SDS011;10575;50.124;8.582;2024-01-11T10:40:55;73.97;;;29.75;;
20828;SDS011;10575;50.124;8.582;2024-01-11T10:43:26;80.15;;;29.92;;
20828;SDS011;10575;50.124;8.582;2024-01-11T10:45:52;83.53;;;31.73;;
20828;SDS011;10575;50.124;8.582;2024-01-11T10:48:24;75.50;;;30.60;;
20828;SDS011;10575;50.124;8.582;2024-01-11T10:50:54;80.85;;;30.48;;
20828;SDS011;10575;50.124;8.582;2024-01-11T10:56:12;80.03;;;31.17;;
20828;SDS011;10575;50.124;8.582;2024-01-11T10:58:41;76.05;;;30.73;;
20828;SDS011;10575;50.124;8.582;2024-01-11T11:01:08;79.40;;;31.02;;
20828;SDS011;10575;50.124;8.582;2024-01-11T11:03:35;82.45;;;31.58;;
20828;SDS011;10575;50.124;8.582;2024-01-11T11:06:02;78.28;;;30.75;;
20828;SDS011;10575;50.124;8.582;2024-01-11T11:08:30;78.60;;;30.48;;
20828;SDS011;10575;50.124;8.582;2024-01-11T11:10:56;75.22;;;29.33;;
20828;SDS011;10575;50.124;8.582;2024-01-11T11:13:23;70.55;;;28.33;;
20828;SDS011;10575;50.124;8.582;2024-01-11T11:15:49;85.47;;;29.70;;
20828;SDS011;10575;50.124;8.582;2024-01-11T11:18:16;75.82;;;29.05;;
20828;SDS011;10575;50.124;8.582;2024-01-11T11:20:43;79.97;;;30.40;;
20828;SDS011;10575;50.124;8.582;2024-01-11T11:23:10;73.93;;;27.85;;
20828;SDS011;10575;50.124;8.582;2024-01-11T11:25:39;77.65;;;29.88;;
20828;SDS011;10575;50.124;8.582;2024-01-11T11:28:05;81.03;;;29.50;;
20828;SDS011;10575;50.124;8.582;2024-01-11T11:30:32;77.13;;;29.17;;
20828;SDS011;10575;50.124;8.582;2024-01-11T11:33:06;73.78;;;29.30;;
20828;SDS011;10575;50.124;8.582;2024-01-11T11:35:40;85.70;;;31.33;;
20828;SDS011;10575;50.124;8.582;2024-01-11T11:38:08;86.45;;;30.73;;
20828;SDS011;10575;50.124;8.582;2024-01-11T11:40:41;74.03;;;29.65;;
20828;SDS011;10575;50.124;8.582;2024-01-11T11:43:10;79.80;;;31.80;;
20828;SDS011;10575;50.124;8.582;2024-01-11T11:45:35;73.32;;;30.20;;
20828;SDS011;10575;50.124;8.582;2024-01-11T11:48:21;68.13;;;28.13;;
20828;SDS011;10575;50.124;8.582;2024-01-11T11:51:02;73.57;;;29.08;;
20828;SDS011;10575;50.124;8.582;2024-01-11T11:53:35;65.88;;;27.58;;
20828;SDS011;10575;50.124;8.582;2024-01-11T11:56:02;68.10;;;27.98;;
20828;SDS011;10575;50.124;8.582;2024-01-11T11:58:28;70.88;;;28.33;;
20828;SDS011;10575;50.124;8.582;2024-01-11T12:00:55;65.60;;;25.52;;
20828;SDS011;10575;50.124;8.582;2024-01-11T12:03:26;68.40;;;27.15;;
20828;SDS011;10575;50.124;8.582;2024-01-11T12:06:04;70.25;;;26.48;;
20828;SDS011;10575;50.124;8.582;2024-01-11T12:08:31;71.50;;;27.48;;
20828;SDS011;10575;50.124;8.582;2024-01-11T12:10:57;65.70;;;26.63;;
20828;SDS011;10575;50.124;8.582;2024-01-11T12:13:24;66.85;;;25.55;;
20828;SDS011;10575;50.124;8.582;2024-01-11T12:15:50;65.30;;;26.48;;
20828;SDS011;10575;50.124;8.582;2024-01-11T12:18:16;62.67;;;25.55;;
20828;SDS011;10575;50.124;8.582;2024-01-11T12:20:41;59.65;;;24.73;;
20828;SDS011;10575;50.124;8.582;2024-01-11T12:23:07;59.63;;;24.55;;
20828;SDS011;10575;50.124;8.582;2024-01-11T12:25:32;63.08;;;25.25;;
20828;SDS011;10575;50.124;8.582;2024-01-11T12:27:58;57.65;;;24.85;;
20828;SDS011;10575;50.124;8.582;2024-01-11T12:30:27;59.80;;;23.80;;
20828;SDS011;10575;50.124;8.582;2024-01-11T12:32:55;64.85;;;25.80;;
20828;SDS011;10575;50.124;8.582;2024-01-11T12:35:21;61.92;;;24.75;;
20828;SDS011;10575;50.124;8.582;2024-01-11T12:37:53;52.30;;;21.85;;
20828;SDS011;10575;50.124;8.582;2024-01-11T12:40:20;58.55;;;23.25;;
20828;SDS011;10575;50.124;8.582;2024-01-11T12:42:46;58.20;;;24.00;;
20828;SDS011;10575;50.124;8.582;2024-01-11T12:45:14;59.05;;;23.27;;
20828;SDS011;10575;50.124;8.582;2024-01-11T12:47:40;58.35;;;24.38;;
20828;SDS011;10575;50.124;8.582;2024-01-11T12:50:05;53.63;;;21.75;;
20828;SDS011;10575;50.124;8.582;2024-01-11T12:52:32;54.42;;;22.98;;
20828;SDS011;10575;50.124;8.582;2024-01-11T12:54:58;55.35;;;21.02;;
20828;SDS011;10575;50.124;8.582;2024-01-11T12:57:23;54.75;;;22.23;;
20828;SDS011;10575;50.124;8.582;2024-01-11T12:59:49;56.65;;;21.33;;
20828;SDS011;10575;50.124;8.582;2024-01-11T13:02:15;53.35;;;22.33;;
20828;SDS011;10575;50.124;8.582;2024-01-11T13:04:45;53.25;;;22.23;;
20828;SDS011;10575;50.124;8.582;2024-01-11T13:07:11;57.78;;;23.52;;
20828;SDS011;10575;50.124;8.582;2024-01-11T13:09:38;53.55;;;21.38;;
20828;SDS011;10575;50.124;8.582;2024-01-11T13:12:04;51.03;;;21.52;;
20828;SDS011;10575;50.124;8.582;2024-01-11T13:14:30;50.40;;;21.58;;
20828;SDS011;10575;50.124;8.582;2024-01-11T13:16:56;51.90;;;21.52;;
20828;SDS011;10575;50.124;8.582;2024-01-11T13:19:22;53.90;;;21.38;;
20828;SDS011;10575;50.124;8.582;2024-01-11T13:21:48;53.67;;;22.13;;
20828;SDS011;10575;50.124;8.582;2024-01-11T13:24:13;49.00;;;20.60;;
20828;SDS011;10575;50.124;8.582;2024-01-11T13:26:39;54.45;;;21.58;;
20828;SDS011;10575;50.124;8.582;2024-01-11T13:29:05;51.03;;;21.58;;
20828;SDS011;10575;50.124;8.582;2024-01-11T13:31:31;58.63;;;22.85;;
20828;SDS011;10575;50.124;8.582;2024-01-11T13:33:57;50.10;;;21.73;;
20828;SDS011;10575;50.124;8.582;2024-01-11T13:36:23;49.78;;;20.85;;
20828;SDS011;10575;50.124;8.582;2024-01-11T13:38:49;53.30;;;21.58;;
20828;SDS011;10575;50.124;8.582;2024-01-11T13:41:15;52.88;;;20.17;;
20828;SDS011;10575;50.124;8.582;2024-01-11T13:43:42;46.30;;;20.20;;
20828;SDS011;10575;50.124;8.582;2024-01-11T13:46:08;50.95;;;20.40;;
20828;SDS011;10575;50.124;8.582;2024-01-11T13:48:34;51.72;;;19.60;;
20828;SDS011;10575;50.124;8.582;2024-01-11T13:51:00;49.08;;;20.15;;
20828;SDS011;10575;50.124;8.582;2024-01-11T13:53:27;53.63;;;20.38;;
20828;SDS011;10575;50.124;8.582;2024-01-11T13:55:53;50.55;;;21.60;;
20828;SDS011;10575;50.124;8.582;2024-01-11T13:58:18;52.22;;;20.55;;
20828;SDS011;10575;50.124;8.582;2024-01-11T14:00:44;53.58;;;19.75;;
20828;SDS011;10575;50.124;8.582;2024-01-11T14:03:09;50.85;;;19.70;;
20828;SDS011;10575;50.124;8.582;2024-01-11T14:05:36;45.53;;;18.95;;
20828;SDS011;10575;50.124;8.582;2024-01-11T14:08:02;44.45;;;18.73;;
20828;SDS011;10575;50.124;8.582;2024-01-11T14:10:32;43.05;;;17.98;;
20828;SDS011;10575;50.124;8.582;2024-01-11T14:12:58;41.63;;;19.02;;
20828;SDS011;10575;50.124;8.582;2024-01-11T14:15:27;48.35;;;18.77;;
20828;SDS011;10575;50.124;8.582;2024-01-11T14:17:53;41.75;;;18.00;;
20828;SDS011;10575;50.124;8.582;2024-01-11T14:20:18;43.30;;;18.60;;